createdAt,value
2022-10-04T00:01:51.963Z,13.70
2022-10-04T00:04:42.638Z,13.80
2022-10-04T00:07:12.499Z,13.80
2022-10-04T00:09:48.577Z,13.90
2022-10-04T00:12:37.807Z,13.90
2022-10-04T00:15:28.848Z,14.00
2022-10-04T00:18:10.922Z,14.00
2022-10-04T00:20:47.533Z,14.10
2022-10-04T00:23:23.576Z,14.10
2022-10-04T00:25:53.846Z,14.20
2022-10-04T00:28:21.033Z,14.20
2022-10-04T00:31:16.277Z,14.30
2022-10-04T00:33:53.768Z,14.30
2022-10-04T00:36:26.323Z,14.30
2022-10-04T00:39:26.284Z,14.30
2022-10-04T00:42:06.654Z,14.40
2022-10-04T00:44:43.913Z,14.40
2022-10-04T00:47:46.261Z,14.40
2022-10-04T00:50:17.707Z,14.50
2022-10-04T00:52:47.671Z,14.50
2022-10-04T00:55:25.655Z,14.50
2022-10-04T00:57:56.100Z,14.60
2022-10-04T01:00:22.975Z,14.60
2022-10-04T01:03:00.853Z,14.60
2022-10-04T01:05:33.842Z,14.60
2022-10-04T01:08:10.437Z,14.70
2022-10-04T01:10:40.337Z,14.70
2022-10-04T01:13:41.132Z,14.70
2022-10-04T01:16:14.536Z,14.70
2022-10-04T01:18:41.775Z,14.80
2022-10-04T01:21:21.006Z,14.80
2022-10-04T01:23:59.739Z,14.80
2022-10-04T01:26:29.627Z,14.80
2022-10-04T01:29:19.067Z,14.90
2022-10-04T01:31:49.435Z,14.90
2022-10-04T01:34:20.835Z,14.90
2022-10-04T01:36:48.764Z,14.90
2022-10-04T01:39:16.743Z,14.90
2022-10-04T01:42:18.678Z,15.00
2022-10-04T01:44:58.135Z,15.00
2022-10-04T01:47:27.000Z,15.00
2022-10-04T01:49:53.864Z,15.00
2022-10-04T01:52:36.065Z,15.00
2022-10-04T01:55:05.902Z,15.00
2022-10-04T01:57:37.951Z,15.00
2022-10-04T02:00:12.485Z,15.10
2022-10-04T02:02:49.682Z,15.10
2022-10-04T02:05:18.452Z,15.10
2022-10-04T02:07:45.326Z,15.10
2022-10-04T02:10:16.323Z,15.10
2022-10-04T02:12:46.174Z,15.20
2022-10-04T02:15:13.777Z,15.20
2022-10-04T02:17:42.996Z,15.20
2022-10-04T02:20:18.171Z,15.20
2022-10-04T02:22:46.551Z,15.30
2022-10-04T02:25:13.694Z,15.20
2022-10-04T02:27:40.617Z,15.30
2022-10-04T02:30:09.377Z,15.20
2022-10-04T02:32:55.958Z,15.30
2022-10-04T02:35:22.813Z,15.30
2022-10-04T02:37:52.258Z,15.30
2022-10-04T02:40:19.717Z,15.30
2022-10-04T02:43:12.600Z,15.30
2022-10-04T02:45:49.319Z,15.30
2022-10-04T02:48:40.681Z,15.30
2022-10-04T02:51:34.458Z,15.30
2022-10-04T02:54:10.716Z,15.30
2022-10-04T02:56:37.676Z,15.30
2022-10-04T02:59:05.618Z,15.30
2022-10-04T03:01:48.324Z,15.30
2022-10-04T03:04:15.197Z,15.30
2022-10-04T03:06:43.071Z,15.30
2022-10-04T03:09:09.854Z,15.30
2022-10-04T03:11:38.283Z,15.30
2022-10-04T03:14:09.067Z,15.30
2022-10-04T03:16:37.564Z,15.30
2022-10-04T03:19:04.525Z,15.30
2022-10-04T03:21:31.459Z,15.30
2022-10-04T03:24:01.102Z,15.30
2022-10-04T03:26:49.245Z,15.20
2022-10-04T03:29:16.682Z,15.20
2022-10-04T03:31:48.392Z,15.20
2022-10-04T03:34:37.631Z,15.20
2022-10-04T03:37:07.344Z,15.20
2022-10-04T03:39:45.807Z,15.20
2022-10-04T03:42:16.428Z,15.20
2022-10-04T03:44:45.071Z,15.20
2022-10-04T03:47:13.906Z,15.20
2022-10-04T03:49:40.957Z,15.20
2022-10-04T03:52:07.959Z,15.20
2022-10-04T03:54:34.939Z,15.30
2022-10-04T03:57:02.084Z,15.20
2022-10-04T03:59:28.911Z,15.20
2022-10-04T04:02:30.067Z,15.20
2022-10-04T04:05:20.565Z,15.30
2022-10-04T04:07:54.314Z,15.30
2022-10-04T04:10:26.582Z,15.30
2022-10-04T04:13:35.163Z,15.40
2022-10-04T04:16:02.502Z,15.40
2022-10-04T04:18:35.924Z,15.40
2022-10-04T04:21:03.420Z,15.40
2022-10-04T04:23:38.000Z,15.40
2022-10-04T04:26:36.808Z,15.40
2022-10-04T04:29:25.981Z,15.50
2022-10-04T04:32:00.205Z,15.50
2022-10-04T04:34:30.095Z,15.50
2022-10-04T04:37:00.918Z,15.50
2022-10-04T04:39:34.795Z,15.50
2022-10-04T04:42:16.999Z,15.50
2022-10-04T04:44:53.767Z,15.50
2022-10-04T04:47:28.056Z,15.50
2022-10-04T04:49:56.646Z,15.50
2022-10-04T04:52:27.065Z,15.50
2022-10-04T04:54:54.083Z,15.50
2022-10-04T04:57:20.974Z,15.50
2022-10-04T04:59:49.860Z,15.50
2022-10-04T05:02:29.038Z,15.50
2022-10-04T05:05:20.272Z,15.50
2022-10-04T05:07:47.590Z,15.50
2022-10-04T05:10:33.365Z,15.50
2022-10-04T05:13:01.044Z,15.50
2022-10-04T05:15:32.207Z,15.50
2022-10-04T05:17:59.598Z,15.50
2022-10-04T05:20:26.761Z,15.60
2022-10-04T05:22:53.644Z,15.60
2022-10-04T05:25:32.474Z,15.60
2022-10-04T05:27:59.376Z,15.60
2022-10-04T05:30:57.780Z,15.50
2022-10-04T05:33:40.585Z,15.60
2022-10-04T05:36:38.393Z,15.50
2022-10-04T05:39:32.280Z,15.50
2022-10-04T05:42:24.696Z,15.50
2022-10-04T05:44:55.990Z,15.50
2022-10-04T05:47:27.744Z,15.50
2022-10-04T05:49:55.791Z,15.50
2022-10-04T05:52:30.660Z,15.50
2022-10-04T05:55:13.128Z,15.50
2022-10-04T05:57:59.079Z,15.40
2022-10-04T06:00:37.283Z,15.40
2022-10-04T06:03:25.818Z,15.40
2022-10-04T06:05:57.558Z,15.40
2022-10-04T06:08:45.404Z,15.40
2022-10-04T06:11:50.796Z,15.40
2022-10-04T06:14:20.491Z,15.40
2022-10-04T06:16:59.517Z,15.40
2022-10-04T06:19:52.389Z,15.40
2022-10-04T06:22:19.473Z,15.40
2022-10-04T06:24:50.815Z,15.40
2022-10-04T06:27:23.653Z,15.40
2022-10-04T06:29:54.310Z,15.40
2022-10-04T06:32:24.310Z,15.40
2022-10-04T06:34:52.030Z,15.40
2022-10-04T06:37:51.834Z,15.50
2022-10-04T06:40:22.393Z,15.50
2022-10-04T06:43:19.450Z,15.50
2022-10-04T06:46:02.863Z,15.60
2022-10-04T06:48:51.406Z,15.60
2022-10-04T06:51:23.901Z,15.60
2022-10-04T06:54:16.860Z,15.60
2022-10-04T06:56:56.082Z,15.70
2022-10-04T06:59:45.411Z,15.70
2022-10-04T07:02:13.465Z,15.70
2022-10-04T07:05:10.223Z,15.70
2022-10-04T07:07:38.865Z,15.70
2022-10-04T07:10:15.508Z,15.80
2022-10-04T07:12:44.627Z,15.80
2022-10-04T07:15:42.942Z,15.80
2022-10-04T07:18:11.987Z,15.80
2022-10-04T07:20:38.837Z,15.80
2022-10-04T07:23:08.508Z,15.80
2022-10-04T07:25:46.997Z,15.90
2022-10-04T07:28:34.705Z,15.90
2022-10-04T07:31:06.351Z,15.90
2022-10-04T07:33:41.623Z,15.90
2022-10-04T07:36:13.225Z,16.00
2022-10-04T07:38:46.439Z,16.00
2022-10-04T07:41:28.961Z,15.90
2022-10-04T07:43:59.545Z,16.00
2022-10-04T07:46:43.361Z,16.00
2022-10-04T07:49:20.972Z,16.10
2022-10-04T07:52:15.840Z,16.20
2022-10-04T07:54:59.676Z,16.30
2022-10-04T07:57:45.149Z,16.30
2022-10-04T08:00:22.089Z,16.30
2022-10-04T08:02:57.938Z,16.40
2022-10-04T08:05:34.180Z,16.50
2022-10-04T08:08:27.128Z,16.60
2022-10-04T08:11:10.558Z,16.60
2022-10-04T08:14:09.152Z,16.70
2022-10-04T08:16:58.312Z,16.80
2022-10-04T08:19:54.543Z,16.80
2022-10-04T08:22:30.276Z,16.90
2022-10-04T08:25:02.648Z,17.00
2022-10-04T08:27:37.813Z,17.00
2022-10-04T08:30:18.122Z,17.00
2022-10-04T08:33:06.444Z,17.00
2022-10-04T08:36:02.426Z,17.10
2022-10-04T08:38:35.045Z,17.10
2022-10-04T08:41:54.131Z,17.10
2022-10-04T08:44:27.325Z,17.10
2022-10-04T08:47:09.785Z,17.00
2022-10-04T08:49:38.472Z,17.00
2022-10-04T08:52:39.953Z,17.00
2022-10-04T08:55:31.378Z,17.00
2022-10-04T08:58:35.307Z,17.00
2022-10-04T09:01:37.223Z,16.90
2022-10-04T09:04:32.724Z,16.90
2022-10-04T09:07:50.807Z,16.90
2022-10-04T09:10:29.850Z,16.90
2022-10-04T09:13:12.330Z,16.80
2022-10-04T09:15:53.080Z,16.80
2022-10-04T09:18:45.794Z,16.80
2022-10-04T09:21:18.276Z,16.80
2022-10-04T09:24:09.681Z,16.70
2022-10-04T09:26:40.881Z,16.70
2022-10-04T09:29:37.530Z,16.70
2022-10-04T09:32:04.398Z,16.70
2022-10-04T09:34:51.745Z,16.80
2022-10-04T09:37:33.122Z,16.90
2022-10-04T09:40:47.339Z,16.90
2022-10-04T09:43:54.692Z,16.90
2022-10-04T09:46:56.163Z,17.00
2022-10-04T09:49:41.727Z,17.20
2022-10-04T09:52:13.146Z,17.30
2022-10-04T09:54:58.867Z,17.40
2022-10-04T09:57:45.858Z,17.50
2022-10-04T10:00:24.979Z,17.60
2022-10-04T10:03:01.763Z,17.80
2022-10-04T10:06:10.589Z,18.00
2022-10-04T10:09:02.648Z,18.10
2022-10-04T10:12:04.759Z,18.10
2022-10-04T10:14:53.361Z,18.20
2022-10-04T10:17:40.260Z,18.20
2022-10-04T10:20:34.616Z,18.10
2022-10-04T10:23:26.684Z,18.00
2022-10-04T10:26:33.263Z,17.90
2022-10-04T10:29:51.480Z,17.90
2022-10-04T10:32:30.146Z,18.00
2022-10-04T10:35:24.346Z,18.10
2022-10-04T10:38:07.561Z,18.20
2022-10-04T10:41:05.048Z,18.40
2022-10-04T10:43:56.232Z,18.50
2022-10-04T10:47:01.384Z,18.50
2022-10-04T10:49:52.537Z,18.40
2022-10-04T10:52:56.072Z,18.40
2022-10-04T10:55:53.030Z,18.40
2022-10-04T10:58:34.964Z,18.50
2022-10-04T11:01:29.370Z,18.60
2022-10-04T11:04:12.562Z,18.70
2022-10-04T11:06:58.905Z,18.90
2022-10-04T11:09:32.999Z,19.10
2022-10-04T11:12:17.886Z,19.20
2022-10-04T11:14:56.632Z,19.20
2022-10-04T11:18:02.117Z,19.20
2022-10-04T11:20:32.098Z,19.00
2022-10-04T11:23:08.984Z,18.90
2022-10-04T11:26:03.290Z,18.90
2022-10-04T11:28:46.956Z,18.80
2022-10-04T11:31:34.144Z,18.70
2022-10-04T11:34:39.844Z,18.50
2022-10-04T11:37:27.119Z,18.40
2022-10-04T11:40:24.657Z,18.30
2022-10-04T11:43:24.354Z,18.30
2022-10-04T11:46:09.848Z,18.30
2022-10-04T11:49:08.392Z,18.50
2022-10-04T11:51:50.929Z,18.60
2022-10-04T11:54:21.383Z,18.70
2022-10-04T11:57:09.049Z,18.80
2022-10-04T11:59:41.626Z,19.00
2022-10-04T12:02:53.673Z,19.20
2022-10-04T12:05:28.958Z,19.30
2022-10-04T12:08:01.575Z,19.30
2022-10-04T12:10:38.242Z,19.40
2022-10-04T12:13:26.851Z,19.30
2022-10-04T12:16:20.230Z,19.30
2022-10-04T12:19:02.551Z,19.30
2022-10-04T12:21:40.271Z,19.10
2022-10-04T12:24:28.769Z,19.10
2022-10-04T12:27:01.279Z,19.00
2022-10-04T12:29:37.817Z,18.90
2022-10-04T12:32:27.490Z,18.90
2022-10-04T12:35:14.102Z,18.90
2022-10-04T12:38:06.463Z,18.90
2022-10-04T12:40:54.475Z,18.80
2022-10-04T12:43:56.793Z,18.70
2022-10-04T12:46:46.119Z,18.70
2022-10-04T12:49:16.172Z,18.50
2022-10-04T12:51:47.021Z,18.50
2022-10-04T12:54:34.896Z,18.40
2022-10-04T12:57:28.922Z,18.30
2022-10-04T13:00:04.461Z,18.20
2022-10-04T13:03:10.191Z,18.20
2022-10-04T13:05:47.868Z,18.30
2022-10-04T13:08:18.347Z,18.30
2022-10-04T13:11:00.941Z,18.30
2022-10-04T13:13:31.709Z,18.30
2022-10-04T13:19:50.426Z,18.20
2022-10-04T13:22:55.846Z,18.10
2022-10-04T13:25:29.792Z,18.10
2022-10-04T13:28:05.421Z,18.10
2022-10-04T13:31:00.245Z,18.20
2022-10-04T13:33:39.525Z,18.40
2022-10-04T13:36:11.752Z,18.60
2022-10-04T13:39:09.581Z,18.70
2022-10-04T13:42:11.439Z,18.80
2022-10-04T13:44:55.027Z,18.80
2022-10-04T13:47:52.755Z,18.80
2022-10-04T13:50:31.844Z,18.80
2022-10-04T13:53:38.528Z,18.70
2022-10-04T13:56:40.194Z,18.60
2022-10-04T13:59:09.609Z,18.50
2022-10-04T14:01:54.506Z,18.60
2022-10-04T14:04:28.479Z,18.60
2022-10-04T14:07:26.042Z,18.70
2022-10-04T14:09:59.747Z,18.80
2022-10-04T14:12:58.359Z,18.80
2022-10-04T14:15:49.273Z,18.80
2022-10-04T14:18:35.972Z,18.80
2022-10-04T14:21:32.109Z,18.70
2022-10-04T14:24:21.113Z,18.60
2022-10-04T14:27:09.875Z,18.50
2022-10-04T14:30:06.313Z,18.60
2022-10-04T14:32:40.131Z,18.60
2022-10-04T14:35:15.910Z,18.70
2022-10-04T14:38:01.837Z,18.70
2022-10-04T14:40:57.146Z,18.60
2022-10-04T14:43:42.789Z,18.50
2022-10-04T14:46:34.615Z,18.50
2022-10-04T14:49:13.582Z,18.50
2022-10-04T14:51:50.666Z,18.50
2022-10-04T14:54:26.444Z,18.40
2022-10-04T14:57:13.856Z,18.30
2022-10-04T14:59:55.948Z,18.20
2022-10-04T15:02:31.932Z,18.10
2022-10-04T15:05:28.698Z,18.10
2022-10-04T15:07:59.493Z,18.10
2022-10-04T15:10:37.917Z,18.10
2022-10-04T15:13:11.551Z,18.10
2022-10-04T15:16:13.727Z,18.10
2022-10-04T15:18:56.339Z,18.20
2022-10-04T15:21:46.826Z,18.10
2022-10-04T15:24:25.856Z,18.20
2022-10-04T15:27:16.931Z,18.20
2022-10-04T15:30:08.517Z,18.20
2022-10-04T15:33:00.292Z,18.20
2022-10-04T15:35:30.291Z,18.30
2022-10-04T15:38:34.299Z,18.30
2022-10-04T15:41:02.169Z,18.30
2022-10-04T15:43:34.993Z,18.30
2022-10-04T15:46:24.264Z,18.20
2022-10-04T15:48:54.111Z,18.10
2022-10-04T15:51:42.739Z,18.10
2022-10-04T15:54:31.681Z,18.00
2022-10-04T15:57:17.489Z,17.90
2022-10-04T15:59:55.659Z,17.80
2022-10-04T16:02:40.896Z,17.80
2022-10-04T16:05:14.878Z,17.80
2022-10-04T16:08:04.018Z,17.80
2022-10-04T16:10:52.343Z,17.80
2022-10-04T16:13:42.341Z,17.80
2022-10-04T16:16:19.408Z,17.80
2022-10-04T16:18:46.301Z,17.80
2022-10-04T16:21:47.504Z,17.70
2022-10-04T16:24:20.391Z,17.70
2022-10-04T16:26:47.757Z,17.70
2022-10-04T16:29:24.028Z,17.70
2022-10-04T16:32:16.927Z,17.70
2022-10-04T16:34:45.569Z,17.60
2022-10-04T16:37:32.579Z,17.60
2022-10-04T16:40:26.238Z,17.60
2022-10-04T16:43:01.376Z,17.60
2022-10-04T16:45:36.428Z,17.60
2022-10-04T16:48:13.599Z,17.60
2022-10-04T16:50:49.360Z,17.60
2022-10-04T16:53:41.104Z,17.50
2022-10-04T16:56:16.500Z,17.50
2022-10-04T16:58:49.148Z,17.50
2022-10-04T17:01:37.339Z,17.50
2022-10-04T17:04:04.241Z,17.50
2022-10-04T17:06:51.591Z,17.50
2022-10-04T17:09:37.008Z,17.50
2022-10-04T17:12:27.266Z,17.50
2022-10-04T17:15:00.701Z,17.50
2022-10-04T17:17:44.745Z,17.40
2022-10-04T17:20:46.010Z,17.40
2022-10-04T17:23:22.185Z,17.30
2022-10-04T17:26:23.123Z,17.30
2022-10-04T17:28:55.499Z,17.20
2022-10-04T17:31:41.398Z,17.10
2022-10-04T17:34:14.393Z,17.10
2022-10-04T17:37:11.342Z,17.10
2022-10-04T17:39:48.228Z,17.10
2022-10-04T17:42:29.507Z,17.10
2022-10-04T17:45:18.831Z,17.00
2022-10-04T17:48:16.739Z,16.90
2022-10-04T17:51:05.058Z,16.90
2022-10-04T17:53:51.693Z,16.90
2022-10-04T17:56:32.028Z,16.90
2022-10-04T17:58:59.355Z,16.90
2022-10-04T18:01:29.336Z,16.80
2022-10-04T18:04:35.403Z,16.80
2022-10-04T18:07:13.309Z,16.80
2022-10-04T18:09:40.123Z,16.80
2022-10-04T18:12:28.839Z,16.80
2022-10-04T18:15:19.030Z,16.80
2022-10-04T18:17:48.404Z,16.80
2022-10-04T18:20:41.632Z,16.80
2022-10-04T18:23:19.200Z,16.70
2022-10-04T18:25:46.076Z,16.70
2022-10-04T18:28:20.909Z,16.60
2022-10-04T18:30:53.972Z,16.60
2022-10-04T18:33:32.036Z,16.60
2022-10-04T18:36:18.946Z,16.60
2022-10-04T18:38:47.416Z,16.60
2022-10-04T18:41:23.385Z,16.60
2022-10-04T18:43:59.763Z,16.50
2022-10-04T18:46:28.901Z,16.60
2022-10-04T18:49:16.036Z,16.50
2022-10-04T18:52:04.768Z,16.60
2022-10-04T18:54:55.438Z,16.50
2022-10-04T18:57:32.655Z,16.50
2022-10-04T19:00:32.119Z,16.50
2022-10-04T19:03:07.781Z,16.40
2022-10-04T19:05:34.624Z,16.50
2022-10-04T19:08:17.915Z,16.50
2022-10-04T19:10:49.431Z,16.50
2022-10-04T19:13:28.692Z,16.50
2022-10-04T19:16:04.662Z,16.40
2022-10-04T19:18:48.012Z,16.40
2022-10-04T19:21:54.517Z,16.40
2022-10-04T19:24:27.966Z,16.40
2022-10-04T19:26:59.953Z,16.30
2022-10-04T19:29:26.873Z,16.40
2022-10-04T19:32:06.101Z,16.30
2022-10-04T19:35:00.493Z,16.30
2022-10-04T19:37:41.153Z,16.30
2022-10-04T19:40:16.989Z,16.30
2022-10-04T19:43:09.805Z,16.30
2022-10-04T19:46:15.485Z,16.30
2022-10-04T19:48:49.626Z,16.30
2022-10-04T19:51:34.031Z,16.30
2022-10-04T19:54:10.865Z,16.30
2022-10-04T19:56:47.302Z,16.30
2022-10-04T19:59:18.597Z,16.30
2022-10-04T20:01:46.137Z,16.30
2022-10-04T20:04:46.428Z,16.30
2022-10-04T20:07:19.348Z,16.20
2022-10-04T20:10:07.614Z,16.20
2022-10-04T20:12:41.521Z,16.20
2022-10-04T20:15:15.459Z,16.20
2022-10-04T20:17:42.943Z,16.20
2022-10-04T20:20:10.182Z,16.20
2022-10-04T20:22:52.368Z,16.20
2022-10-04T20:25:44.391Z,16.20
2022-10-04T20:28:26.771Z,16.30
2022-10-04T20:31:00.691Z,16.30
2022-10-04T20:33:33.678Z,16.30
2022-10-04T20:36:00.967Z,16.40
2022-10-04T20:38:47.553Z,16.40
2022-10-04T20:41:30.524Z,16.50
2022-10-04T20:44:01.634Z,16.50
2022-10-04T20:46:38.389Z,16.50
2022-10-04T20:49:05.848Z,16.50
2022-10-04T20:51:33.226Z,16.50
2022-10-04T20:54:01.561Z,16.50
2022-10-04T20:56:33.270Z,16.50
2022-10-04T20:59:01.288Z,16.50
2022-10-04T21:01:38.316Z,16.50
2022-10-04T21:04:30.391Z,16.60
2022-10-04T21:06:59.368Z,16.60
2022-10-04T21:09:27.691Z,16.60
2022-10-04T21:11:56.663Z,16.60
2022-10-04T21:14:33.526Z,16.60
2022-10-04T21:17:04.547Z,16.60
2022-10-04T21:19:38.973Z,16.60
2022-10-04T21:22:32.323Z,16.60
2022-10-04T21:25:04.790Z,16.60
2022-10-04T21:27:32.712Z,16.60
2022-10-04T21:30:00.734Z,16.60
2022-10-04T21:32:27.948Z,16.60
2022-10-04T21:34:55.040Z,16.60
2022-10-04T21:37:21.990Z,16.60
2022-10-04T21:39:48.925Z,16.60
2022-10-04T21:42:15.900Z,16.60
2022-10-04T21:44:42.824Z,16.60
2022-10-04T21:47:10.240Z,16.60
2022-10-04T21:49:37.156Z,16.60
2022-10-04T21:52:05.644Z,16.60
2022-10-04T21:54:32.560Z,16.60
2022-10-04T21:56:59.504Z,16.60
2022-10-04T21:59:26.318Z,16.60
2022-10-04T22:01:53.251Z,16.60
2022-10-04T22:04:20.153Z,16.60
2022-10-04T22:06:47.450Z,16.60
2022-10-04T22:09:14.532Z,16.60
2022-10-04T22:11:41.407Z,16.60
2022-10-04T22:14:08.290Z,16.60
2022-10-04T22:16:35.233Z,16.60
2022-10-04T22:19:02.124Z,16.60
2022-10-04T22:21:29.066Z,16.60
2022-10-04T22:23:55.925Z,16.60
2022-10-04T22:26:22.833Z,16.60
2022-10-04T22:28:51.288Z,16.60
2022-10-04T22:31:19.736Z,16.60
2022-10-04T22:33:48.006Z,16.60
2022-10-04T22:36:32.149Z,16.70
2022-10-04T22:39:08.765Z,16.70
2022-10-04T22:42:01.874Z,16.60
2022-10-04T22:44:36.476Z,16.70
2022-10-04T22:47:04.268Z,16.70
2022-10-04T22:49:32.648Z,16.70
2022-10-04T22:52:00.601Z,16.70
2022-10-04T22:54:31.343Z,16.70
2022-10-04T22:56:58.397Z,16.70
2022-10-04T22:59:33.613Z,16.70
2022-10-04T23:02:00.625Z,16.70
2022-10-04T23:04:27.557Z,16.70
2022-10-04T23:06:54.453Z,16.70
2022-10-04T23:09:21.328Z,16.70
2022-10-04T23:11:48.170Z,16.70
2022-10-04T23:14:15.026Z,16.70
2022-10-04T23:16:44.687Z,16.70
2022-10-04T23:19:21.192Z,16.70
2022-10-04T23:21:49.141Z,16.70
2022-10-04T23:24:16.931Z,16.70
2022-10-04T23:26:48.774Z,16.70
2022-10-04T23:29:18.923Z,16.70
2022-10-04T23:31:46.531Z,16.70
2022-10-04T23:34:18.251Z,16.70
2022-10-04T23:36:46.354Z,16.80
2022-10-04T23:39:17.210Z,16.70
2022-10-04T23:41:44.230Z,16.70
2022-10-04T23:44:12.930Z,16.70
2022-10-04T23:46:39.793Z,16.70
2022-10-04T23:49:17.628Z,16.80
2022-10-04T23:51:45.246Z,16.70
2022-10-04T23:54:15.833Z,16.80
2022-10-04T23:56:42.919Z,16.80
2022-10-04T23:59:17.367Z,16.80
